TimeCST,TemperatureF,Dew PointF,Humidity,Sea Level PressureIn,VisibilityMPH,Wind Direction,Wind SpeedMPH,Gust SpeedMPH,PrecipitationIn,Events,Conditions,WindDirDegrees,DateUTC
12:15 AM,15.4,11.3,84,30.24,10.0,Calm,Calm,-,N/A,,Clear,0,2013-01-07 06:15:00
12:35 AM,13.6,9.1,82,30.23,10.0,Calm,Calm,-,N/A,,Clear,0,2013-01-07 06:35:00
12:55 AM,14.5,9.7,81,30.23,10.0,Calm,Calm,-,N/A,,Clear,0,2013-01-07 06:55:00
1:15 AM,13.6,9.1,82,30.23,10.0,SSW,3.5,-,N/A,,Clear,200,2013-01-07 07:15:00
1:35 AM,15.6,11.3,83,30.23,10.0,SSW,4.6,-,N/A,,Clear,210,2013-01-07 07:35:00
1:55 AM,15.8,10.9,81,30.23,10.0,SSW,4.6,-,N/A,,Clear,210,2013-01-07 07:55:00
2:15 AM,16.3,11.1,80,30.23,10.0,SSW,6.9,-,N/A,,Clear,210,2013-01-07 08:15:00
2:35 AM,16.2,10.9,80,30.22,10.0,SSW,3.5,-,N/A,,Clear,200,2013-01-07 08:35:00
2:55 AM,16.7,11.7,81,30.22,10.0,SSW,6.9,-,N/A,,Clear,200,2013-01-07 08:55:00
3:15 AM,17.4,12.4,81,30.22,10.0,SSW,9.2,-,N/A,,Clear,210,2013-01-07 09:15:00
3:35 AM,16.7,11.8,81,30.21,10.0,SSW,9.2,-,N/A,,Clear,200,2013-01-07 09:35:00
3:55 AM,16.7,11.8,81,30.21,10.0,SSW,6.9,-,N/A,,Clear,200,2013-01-07 09:55:00
4:15 AM,16.2,11.3,81,30.20,10.0,SSW,5.8,-,N/A,,Clear,200,2013-01-07 10:15:00
4:35 AM,16.7,11.7,81,30.19,10.0,SSW,5.8,-,N/A,,Clear,210,2013-01-07 10:35:00
4:55 AM,18.5,12.4,77,30.18,10.0,SW,6.9,-,N/A,,Clear,220,2013-01-07 10:55:00
5:15 AM,18.5,12.2,76,30.17,10.0,SSW,9.2,-,N/A,,Clear,210,2013-01-07 11:15:00
5:35 AM,18.5,12.2,76,30.17,10.0,SSW,10.4,-,N/A,,Clear,200,2013-01-07 11:35:00
5:55 AM,18.5,12.2,76,30.16,10.0,SW,9.2,-,N/A,,Clear,220,2013-01-07 11:55:00
6:15 AM,18.0,11.8,77,30.15,10.0,SSW,6.9,-,N/A,,Clear,200,2013-01-07 12:15:00
6:35 AM,18.1,12.2,78,30.15,10.0,South,6.9,-,N/A,,Clear,190,2013-01-07 12:35:00
6:55 AM,19.9,13.1,75,30.14,10.0,SSW,9.2,-,N/A,,Clear,200,2013-01-07 12:55:00
7:15 AM,21.9,14.5,73,30.13,10.0,SSW,10.4,-,N/A,,Clear,200,2013-01-07 13:15:00
7:35 AM,22.8,14.7,71,30.13,10.0,SSW,16.1,-,N/A,,Clear,200,2013-01-07 13:35:00
7:55 AM,23.5,15.3,71,30.13,10.0,SSW,10.4,-,N/A,,Clear,210,2013-01-07 13:55:00
8:15 AM,24.8,15.6,68,30.14,10.0,SSW,10.4,-,N/A,,Clear,210,2013-01-07 14:15:00
8:35 AM,25.7,16.5,68,30.14,10.0,SSW,12.7,18.4,N/A,,Clear,210,2013-01-07 14:35:00
8:55 AM,26.4,16.9,67,30.14,10.0,SSW,11.5,-,N/A,,Clear,210,2013-01-07 14:55:00
9:15 AM,27.5,16.9,64,30.12,10.0,SSW,13.8,-,N/A,,Clear,200,2013-01-07 15:15:00
9:35 AM,28.6,16.9,62,30.12,10.0,SSW,12.7,17.3,N/A,,Clear,210,2013-01-07 15:35:00
9:55 AM,29.7,16.7,59,30.12,10.0,SSW,11.5,18.4,N/A,,Clear,210,2013-01-07 15:55:00
10:15 AM,30.4,16.7,57,30.10,10.0,SW,11.5,18.4,N/A,,Clear,230,2013-01-07 16:15:00
10:35 AM,32.0,16.5,53,30.08,10.0,SSW,17.3,27.6,N/A,,Clear,210,2013-01-07 16:35:00
10:55 AM,33.4,16.9,51,30.09,10.0,SW,10.4,19.6,N/A,,Clear,230,2013-01-07 16:55:00
11:15 AM,33.4,17.4,52,30.06,10.0,SW,13.8,25.3,N/A,,Clear,220,2013-01-07 17:15:00
11:35 AM,33.8,17.8,52,30.04,10.0,SW,18.4,27.6,N/A,,Clear,220,2013-01-07 17:35:00
11:55 AM,34.7,18.7,52,30.03,10.0,SSW,12.7,17.3,N/A,,Clear,210,2013-01-07 17:55:00
12:15 PM,35.6,19.0,51,30.01,10.0,SSW,16.1,24.2,N/A,,Clear,210,2013-01-07 18:15:00
12:35 PM,35.6,19.4,52,30.02,10.0,SW,15.0,21.9,N/A,,Clear,230,2013-01-07 18:35:00
12:55 PM,36.5,20.1,52,30.02,10.0,SW,13.8,19.6,N/A,,Clear,220,2013-01-07 18:55:00
1:15 PM,36.0,20.8,54,30.01,10.0,SW,13.8,20.7,N/A,,Clear,220,2013-01-07 19:15:00
1:35 PM,36.5,21.0,54,30.01,10.0,SSW,13.8,23.0,N/A,,Clear,210,2013-01-07 19:35:00
1:55 PM,36.7,21.4,54,30.00,10.0,SW,15.0,20.7,N/A,,Clear,220,2013-01-07 19:55:00
2:15 PM,37.4,21.9,54,30.01,10.0,SSW,12.7,-,N/A,,Clear,210,2013-01-07 20:15:00
2:35 PM,37.6,22.3,54,30.01,10.0,SW,10.4,16.1,N/A,,Clear,220,2013-01-07 20:35:00
2:55 PM,37.0,22.5,56,30.01,10.0,SW,9.2,17.3,N/A,,Clear,220,2013-01-07 20:55:00
3:15 PM,36.9,22.6,56,30.02,10.0,SW,9.2,-,N/A,,Clear,220,2013-01-07 21:15:00
3:35 PM,36.7,22.8,57,30.01,10.0,SW,10.4,17.3,N/A,,Clear,230,2013-01-07 21:35:00
3:55 PM,36.5,23.0,58,30.01,10.0,SSW,10.4,-,N/A,,Clear,210,2013-01-07 21:55:00
4:15 PM,35.8,22.8,59,30.02,10.0,SW,5.8,-,N/A,,Clear,220,2013-01-07 22:15:00
4:35 PM,35.2,23.0,61,30.02,10.0,SSW,4.6,-,N/A,,Clear,200,2013-01-07 22:35:00
4:55 PM,34.7,23.0,62,30.02,10.0,SSW,6.9,-,N/A,,Clear,210,2013-01-07 22:55:00
5:15 PM,34.7,23.0,62,30.02,10.0,SSW,4.6,-,N/A,,Clear,210,2013-01-07 23:15:00
5:35 PM,34.3,23.2,64,30.02,10.0,SSW,8.1,-,N/A,,Clear,210,2013-01-07 23:35:00
6:15 PM,34.0,23.2,65,30.02,10.0,SSW,6.9,-,N/A,,Clear,210,2013-01-08 00:15:00
6:35 PM,33.6,23.2,66,30.02,10.0,SSW,8.1,-,N/A,,Clear,210,2013-01-08 00:35:00
6:55 PM,33.4,23.2,66,30.02,10.0,SSW,8.1,-,N/A,,Clear,210,2013-01-08 00:55:00
7:15 PM,32.9,23.2,67,30.02,10.0,SSW,6.9,-,N/A,,Clear,210,2013-01-08 01:15:00
7:35 PM,32.7,23.4,68,30.02,10.0,SW,8.1,-,N/A,,Clear,220,2013-01-08 01:35:00
7:55 PM,32.9,23.9,69,30.02,10.0,SSW,8.1,-,N/A,,Clear,210,2013-01-08 01:55:00
8:15 PM,33.1,23.9,69,30.02,10.0,SSW,9.2,-,N/A,,Clear,210,2013-01-08 02:15:00
8:35 PM,33.1,24.1,70,30.02,10.0,SSW,9.2,-,N/A,,Clear,210,2013-01-08 02:35:00
8:55 PM,32.9,24.3,71,30.01,10.0,SSW,9.2,-,N/A,,Clear,210,2013-01-08 02:55:00
9:15 PM,32.5,24.3,72,30.02,10.0,SW,6.9,-,N/A,,Clear,220,2013-01-08 03:15:00
9:35 PM,32.9,24.6,72,30.03,10.0,SW,8.1,-,N/A,,Clear,230,2013-01-08 03:35:00
9:55 PM,33.4,24.8,71,30.02,10.0,SW,8.1,-,N/A,,Clear,230,2013-01-08 03:55:00
10:15 PM,33.4,24.8,71,30.02,10.0,WSW,8.1,-,N/A,,Clear,240,2013-01-08 04:15:00
10:35 PM,33.8,24.8,70,30.02,10.0,SW,8.1,-,N/A,,Clear,220,2013-01-08 04:35:00
10:55 PM,33.8,25.0,70,30.02,10.0,SW,6.9,-,N/A,,Clear,230,2013-01-08 04:55:00
11:15 PM,33.6,25.0,71,30.02,10.0,WSW,5.8,-,N/A,,Clear,240,2013-01-08 05:15:00
11:35 PM,32.9,24.8,72,30.02,10.0,WSW,8.1,-,N/A,,Clear,250,2013-01-08 05:35:00
11:55 PM,32.9,24.8,72,30.03,10.0,WSW,6.9,-,N/A,,Clear,250,2013-01-08 05:55:00